sensor_id;sensor_type;location;lat;lon;timestamp;P1;durP1;ratioP1;P2;durP2;ratioP2
70450;SDS011;58869;51.982;4.450;2022-12-18T00:01:53;66.23;;;58.15;;
70450;SDS011;58869;51.982;4.450;2022-12-18T00:04:36;68.01;;;59.12;;
70450;SDS011;58869;51.982;4.450;2022-12-18T00:07:02;69.64;;;60.61;;
70450;SDS011;58869;51.982;4.450;2022-12-18T00:09:28;69.65;;;59.78;;
70450;SDS011;58869;51.982;4.450;2022-12-18T00:11:53;72.64;;;61.99;;
70450;SDS011;58869;51.982;4.450;2022-12-18T00:14:21;70.40;;;60.84;;
70450;SDS011;58869;51.982;4.450;2022-12-18T00:16:46;69.72;;;61.17;;
70450;SDS011;58869;51.982;4.450;2022-12-18T00:19:14;69.29;;;60.45;;
70450;SDS011;58869;51.982;4.450;2022-12-18T00:21:42;67.43;;;59.69;;
70450;SDS011;58869;51.982;4.450;2022-12-18T00:24:08;68.97;;;60.03;;
70450;SDS011;58869;51.982;4.450;2022-12-18T00:26:37;67.75;;;59.55;;
70450;SDS011;58869;51.982;4.450;2022-12-18T00:29:05;70.82;;;61.35;;
70450;SDS011;58869;51.982;4.450;2022-12-18T00:31:41;67.51;;;59.82;;
70450;SDS011;58869;51.982;4.450;2022-12-18T00:34:11;69.64;;;60.72;;
70450;SDS011;58869;51.982;4.450;2022-12-18T00:36:39;67.85;;;59.75;;
70450;SDS011;58869;51.982;4.450;2022-12-18T00:39:05;67.89;;;59.60;;
70450;SDS011;58869;51.982;4.450;2022-12-18T00:41:31;66.86;;;58.86;;
70450;SDS011;58869;51.982;4.450;2022-12-18T00:44:16;68.13;;;60.09;;
70450;SDS011;58869;51.982;4.450;2022-12-18T00:46:44;70.34;;;60.93;;
70450;SDS011;58869;51.982;4.450;2022-12-18T00:49:14;72.46;;;62.31;;
70450;SDS011;58869;51.982;4.450;2022-12-18T00:51:41;72.49;;;62.53;;
70450;SDS011;58869;51.982;4.450;2022-12-18T00:54:12;73.96;;;63.10;;
70450;SDS011;58869;51.982;4.450;2022-12-18T00:56:38;76.55;;;64.36;;
70450;SDS011;58869;51.982;4.450;2022-12-18T00:59:04;74.82;;;64.33;;
70450;SDS011;58869;51.982;4.450;2022-12-18T01:01:30;72.18;;;62.80;;
70450;SDS011;58869;51.982;4.450;2022-12-18T01:03:55;70.91;;;61.78;;
70450;SDS011;58869;51.982;4.450;2022-12-18T01:06:21;74.02;;;63.21;;
70450;SDS011;58869;51.982;4.450;2022-12-18T01:08:47;74.42;;;63.55;;
70450;SDS011;58869;51.982;4.450;2022-12-18T01:11:14;74.07;;;62.55;;
70450;SDS011;58869;51.982;4.450;2022-12-18T01:13:41;73.66;;;62.70;;
70450;SDS011;58869;51.982;4.450;2022-12-18T01:16:08;73.23;;;62.60;;
70450;SDS011;58869;51.982;4.450;2022-12-18T01:18:39;75.55;;;63.59;;
70450;SDS011;58869;51.982;4.450;2022-12-18T01:21:08;72.10;;;61.65;;
70450;SDS011;58869;51.982;4.450;2022-12-18T01:23:35;71.79;;;61.49;;
70450;SDS011;58869;51.982;4.450;2022-12-18T01:26:05;70.83;;;60.55;;
70450;SDS011;58869;51.982;4.450;2022-12-18T01:28:32;69.96;;;60.10;;
70450;SDS011;58869;51.982;4.450;2022-12-18T01:31:08;71.86;;;61.05;;
70450;SDS011;58869;51.982;4.450;2022-12-18T01:33:37;70.49;;;60.44;;
70450;SDS011;58869;51.982;4.450;2022-12-18T01:36:03;70.03;;;60.05;;
70450;SDS011;58869;51.982;4.450;2022-12-18T01:38:29;73.34;;;62.09;;
70450;SDS011;58869;51.982;4.450;2022-12-18T01:41:01;73.43;;;62.02;;
70450;SDS011;58869;51.982;4.450;2022-12-18T01:46:11;70.32;;;60.20;;
70450;SDS011;58869;51.982;4.450;2022-12-18T01:48:37;70.13;;;60.00;;
70450;SDS011;58869;51.982;4.450;2022-12-18T01:51:04;71.33;;;60.36;;
70450;SDS011;58869;51.982;4.450;2022-12-18T01:53:33;71.23;;;60.44;;
70450;SDS011;58869;51.982;4.450;2022-12-18T01:55:59;67.44;;;58.41;;
70450;SDS011;58869;51.982;4.450;2022-12-18T01:58:34;68.05;;;58.84;;
70450;SDS011;58869;51.982;4.450;2022-12-18T02:01:03;67.02;;;58.22;;
70450;SDS011;58869;51.982;4.450;2022-12-18T02:03:29;66.88;;;58.40;;
70450;SDS011;58869;51.982;4.450;2022-12-18T02:05:58;69.01;;;59.57;;
70450;SDS011;58869;51.982;4.450;2022-12-18T02:14:27;72.78;;;62.90;;
70450;SDS011;58869;51.982;4.450;2022-12-18T02:17:14;72.68;;;63.61;;
70450;SDS011;58869;51.982;4.450;2022-12-18T02:20:01;69.44;;;60.95;;
70450;SDS011;58869;51.982;4.450;2022-12-18T02:28:02;69.44;;;59.94;;
70450;SDS011;58869;51.982;4.450;2022-12-18T02:30:32;66.40;;;58.03;;
70450;SDS011;58869;51.982;4.450;2022-12-18T02:33:01;65.46;;;57.65;;
70450;SDS011;58869;51.982;4.450;2022-12-18T02:35:30;67.76;;;58.85;;
70450;SDS011;58869;51.982;4.450;2022-12-18T02:37:57;69.84;;;60.22;;
70450;SDS011;58869;51.982;4.450;2022-12-18T02:40:24;68.48;;;59.38;;
70450;SDS011;58869;51.982;4.450;2022-12-18T02:42:52;68.23;;;59.28;;
70450;SDS011;58869;51.982;4.450;2022-12-18T02:45:17;66.36;;;57.95;;
70450;SDS011;58869;51.982;4.450;2022-12-18T02:47:43;66.67;;;57.87;;
70450;SDS011;58869;51.982;4.450;2022-12-18T02:50:16;65.94;;;57.45;;
70450;SDS011;58869;51.982;4.450;2022-12-18T03:04:27;63.50;;;56.13;;
70450;SDS011;58869;51.982;4.450;2022-12-18T03:07:05;63.54;;;56.27;;
70450;SDS011;58869;51.982;4.450;2022-12-18T03:09:36;63.13;;;56.13;;
70450;SDS011;58869;51.982;4.450;2022-12-18T03:12:10;64.32;;;56.73;;
70450;SDS011;58869;51.982;4.450;2022-12-18T03:14:57;64.83;;;56.75;;
70450;SDS011;58869;51.982;4.450;2022-12-18T03:17:28;63.29;;;56.00;;
70450;SDS011;58869;51.982;4.450;2022-12-18T03:19:56;64.08;;;55.48;;
70450;SDS011;58869;51.982;4.450;2022-12-18T03:22:29;61.90;;;54.71;;
70450;SDS011;58869;51.982;4.450;2022-12-18T03:24:58;62.84;;;54.63;;
70450;SDS011;58869;51.982;4.450;2022-12-18T03:27:28;59.90;;;52.98;;
70450;SDS011;58869;51.982;4.450;2022-12-18T03:30:00;60.91;;;53.52;;
70450;SDS011;58869;51.982;4.450;2022-12-18T03:32:33;59.28;;;52.25;;
70450;SDS011;58869;51.982;4.450;2022-12-18T03:35:06;58.98;;;52.22;;
70450;SDS011;58869;51.982;4.450;2022-12-18T03:37:35;58.19;;;51.45;;
70450;SDS011;58869;51.982;4.450;2022-12-18T03:40:02;56.50;;;50.57;;
70450;SDS011;58869;51.982;4.450;2022-12-18T03:42:29;55.29;;;49.48;;
70450;SDS011;58869;51.982;4.450;2022-12-18T03:45:27;55.07;;;48.91;;
70450;SDS011;58869;51.982;4.450;2022-12-18T03:50:55;53.87;;;48.52;;
70450;SDS011;58869;51.982;4.450;2022-12-18T03:53:47;54.03;;;48.40;;
70450;SDS011;58869;51.982;4.450;2022-12-18T03:56:28;54.21;;;48.69;;
70450;SDS011;58869;51.982;4.450;2022-12-18T03:58:57;54.38;;;48.61;;
70450;SDS011;58869;51.982;4.450;2022-12-18T04:01:29;55.42;;;48.86;;
70450;SDS011;58869;51.982;4.450;2022-12-18T04:03:59;55.12;;;48.87;;
70450;SDS011;58869;51.982;4.450;2022-12-18T04:06:26;56.43;;;50.34;;
70450;SDS011;58869;51.982;4.450;2022-12-18T04:08:53;53.93;;;48.21;;
70450;SDS011;58869;51.982;4.450;2022-12-18T04:11:19;53.74;;;48.49;;
70450;SDS011;58869;51.982;4.450;2022-12-18T04:13:44;55.13;;;49.24;;
70450;SDS011;58869;51.982;4.450;2022-12-18T04:16:10;55.34;;;49.53;;
70450;SDS011;58869;51.982;4.450;2022-12-18T04:18:36;55.23;;;49.53;;
70450;SDS011;58869;51.982;4.450;2022-12-18T04:21:05;56.88;;;50.55;;
70450;SDS011;58869;51.982;4.450;2022-12-18T04:23:30;55.61;;;49.04;;
70450;SDS011;58869;51.982;4.450;2022-12-18T04:25:56;56.36;;;49.73;;
70450;SDS011;58869;51.982;4.450;2022-12-18T04:28:21;57.03;;;49.92;;
70450;SDS011;58869;51.982;4.450;2022-12-18T04:30:48;56.56;;;49.77;;
70450;SDS011;58869;51.982;4.450;2022-12-18T04:33:14;57.71;;;50.80;;
70450;SDS011;58869;51.982;4.450;2022-12-18T04:35:41;58.66;;;51.32;;
70450;SDS011;58869;51.982;4.450;2022-12-18T04:38:08;58.76;;;51.59;;
70450;SDS011;58869;51.982;4.450;2022-12-18T04:40:35;55.88;;;49.64;;
70450;SDS011;58869;51.982;4.450;2022-12-18T04:43:02;56.37;;;49.66;;
70450;SDS011;58869;51.982;4.450;2022-12-18T04:45:27;55.61;;;49.25;;
70450;SDS011;58869;51.982;4.450;2022-12-18T04:47:53;54.76;;;48.60;;
70450;SDS011;58869;51.982;4.450;2022-12-18T04:50:18;53.64;;;47.78;;
70450;SDS011;58869;51.982;4.450;2022-12-18T04:52:44;55.22;;;48.82;;
70450;SDS011;58869;51.982;4.450;2022-12-18T04:55:09;54.11;;;48.05;;
70450;SDS011;58869;51.982;4.450;2022-12-18T04:57:35;52.82;;;47.79;;
70450;SDS011;58869;51.982;4.450;2022-12-18T05:00:00;53.54;;;48.33;;
70450;SDS011;58869;51.982;4.450;2022-12-18T05:02:26;55.30;;;49.30;;
70450;SDS011;58869;51.982;4.450;2022-12-18T05:04:51;53.19;;;48.10;;
70450;SDS011;58869;51.982;4.450;2022-12-18T05:07:17;55.09;;;49.37;;
70450;SDS011;58869;51.982;4.450;2022-12-18T05:09:42;54.43;;;48.50;;
70450;SDS011;58869;51.982;4.450;2022-12-18T05:12:08;53.50;;;48.16;;
70450;SDS011;58869;51.982;4.450;2022-12-18T05:14:33;52.29;;;47.53;;
70450;SDS011;58869;51.982;4.450;2022-12-18T05:16:59;53.59;;;48.29;;
70450;SDS011;58869;51.982;4.450;2022-12-18T05:19:24;53.87;;;48.29;;
70450;SDS011;58869;51.982;4.450;2022-12-18T05:21:50;54.22;;;48.54;;
70450;SDS011;58869;51.982;4.450;2022-12-18T05:24:18;51.23;;;46.71;;
70450;SDS011;58869;51.982;4.450;2022-12-18T05:26:47;52.63;;;47.48;;
70450;SDS011;58869;51.982;4.450;2022-12-18T05:29:20;50.79;;;46.53;;
70450;SDS011;58869;51.982;4.450;2022-12-18T05:31:45;51.92;;;47.05;;
70450;SDS011;58869;51.982;4.450;2022-12-18T05:34:11;51.81;;;46.70;;
70450;SDS011;58869;51.982;4.450;2022-12-18T05:36:36;51.32;;;46.72;;
70450;SDS011;58869;51.982;4.450;2022-12-18T05:39:02;51.08;;;47.04;;
70450;SDS011;58869;51.982;4.450;2022-12-18T05:41:28;50.98;;;46.41;;
70450;SDS011;58869;51.982;4.450;2022-12-18T05:43:54;52.89;;;47.78;;
70450;SDS011;58869;51.982;4.450;2022-12-18T05:46:23;50.51;;;46.42;;
70450;SDS011;58869;51.982;4.450;2022-12-18T05:48:49;50.20;;;46.02;;
70450;SDS011;58869;51.982;4.450;2022-12-18T05:51:16;50.59;;;46.40;;
70450;SDS011;58869;51.982;4.450;2022-12-18T05:53:43;49.84;;;45.88;;
70450;SDS011;58869;51.982;4.450;2022-12-18T05:56:11;49.64;;;45.92;;
70450;SDS011;58869;51.982;4.450;2022-12-18T05:58:43;49.38;;;45.46;;
70450;SDS011;58869;51.982;4.450;2022-12-18T06:01:13;49.23;;;45.85;;
70450;SDS011;58869;51.982;4.450;2022-12-18T06:03:46;49.01;;;45.29;;
70450;SDS011;58869;51.982;4.450;2022-12-18T06:06:21;50.44;;;46.20;;
70450;SDS011;58869;51.982;4.450;2022-12-18T06:08:49;50.10;;;45.99;;
70450;SDS011;58869;51.982;4.450;2022-12-18T06:11:18;48.63;;;45.26;;
70450;SDS011;58869;51.982;4.450;2022-12-18T06:13:46;47.79;;;44.59;;
70450;SDS011;58869;51.982;4.450;2022-12-18T06:16:11;48.92;;;45.62;;
70450;SDS011;58869;51.982;4.450;2022-12-18T06:18:37;48.87;;;45.28;;
70450;SDS011;58869;51.982;4.450;2022-12-18T06:21:03;49.02;;;45.29;;
70450;SDS011;58869;51.982;4.450;2022-12-18T06:23:28;48.59;;;44.90;;
70450;SDS011;58869;51.982;4.450;2022-12-18T06:25:54;46.47;;;43.48;;
70450;SDS011;58869;51.982;4.450;2022-12-18T06:28:19;47.18;;;44.19;;
70450;SDS011;58869;51.982;4.450;2022-12-18T06:30:45;46.65;;;43.63;;
70450;SDS011;58869;51.982;4.450;2022-12-18T06:33:12;47.93;;;44.46;;
70450;SDS011;58869;51.982;4.450;2022-12-18T06:35:37;46.80;;;43.31;;
70450;SDS011;58869;51.982;4.450;2022-12-18T06:38:03;45.34;;;42.68;;
70450;SDS011;58869;51.982;4.450;2022-12-18T06:40:30;43.09;;;40.82;;
70450;SDS011;58869;51.982;4.450;2022-12-18T06:42:55;47.05;;;43.73;;
70450;SDS011;58869;51.982;4.450;2022-12-18T06:45:21;44.49;;;41.89;;
70450;SDS011;58869;51.982;4.450;2022-12-18T06:47:46;45.47;;;42.48;;
70450;SDS011;58869;51.982;4.450;2022-12-18T06:50:12;45.19;;;42.66;;
70450;SDS011;58869;51.982;4.450;2022-12-18T06:52:38;45.58;;;42.83;;
70450;SDS011;58869;51.982;4.450;2022-12-18T06:55:05;44.63;;;42.13;;
70450;SDS011;58869;51.982;4.450;2022-12-18T06:57:34;46.12;;;42.79;;
70450;SDS011;58869;51.982;4.450;2022-12-18T06:59:59;44.02;;;41.52;;
70450;SDS011;58869;51.982;4.450;2022-12-18T07:02:25;42.68;;;40.41;;
70450;SDS011;58869;51.982;4.450;2022-12-18T07:04:50;42.26;;;40.19;;
70450;SDS011;58869;51.982;4.450;2022-12-18T07:07:16;41.22;;;39.22;;
70450;SDS011;58869;51.982;4.450;2022-12-18T07:09:43;41.87;;;39.63;;
70450;SDS011;58869;51.982;4.450;2022-12-18T07:12:09;41.44;;;39.25;;
70450;SDS011;58869;51.982;4.450;2022-12-18T07:14:34;41.59;;;39.31;;
70450;SDS011;58869;51.982;4.450;2022-12-18T07:17:00;41.54;;;39.55;;
70450;SDS011;58869;51.982;4.450;2022-12-18T07:19:25;41.95;;;39.40;;
70450;SDS011;58869;51.982;4.450;2022-12-18T07:21:51;39.43;;;37.60;;
70450;SDS011;58869;51.982;4.450;2022-12-18T07:24:16;39.50;;;37.65;;
70450;SDS011;58869;51.982;4.450;2022-12-18T07:26:42;37.94;;;36.18;;
70450;SDS011;58869;51.982;4.450;2022-12-18T07:29:10;38.91;;;37.34;;
70450;SDS011;58869;51.982;4.450;2022-12-18T07:31:36;36.39;;;35.50;;
70450;SDS011;58869;51.982;4.450;2022-12-18T07:34:01;38.13;;;36.56;;
70450;SDS011;58869;51.982;4.450;2022-12-18T07:36:29;37.85;;;36.06;;
70450;SDS011;58869;51.982;4.450;2022-12-18T07:38:55;36.68;;;35.35;;
70450;SDS011;58869;51.982;4.450;2022-12-18T07:41:21;36.07;;;34.97;;
70450;SDS011;58869;51.982;4.450;2022-12-18T07:43:46;35.65;;;34.26;;
70450;SDS011;58869;51.982;4.450;2022-12-18T07:46:12;35.06;;;33.76;;
70450;SDS011;58869;51.982;4.450;2022-12-18T07:48:42;34.23;;;33.35;;
70450;SDS011;58869;51.982;4.450;2022-12-18T07:51:10;34.32;;;33.51;;
70450;SDS011;58869;51.982;4.450;2022-12-18T07:53:35;34.79;;;33.88;;
70450;SDS011;58869;51.982;4.450;2022-12-18T07:56:03;34.44;;;33.54;;
70450;SDS011;58869;51.982;4.450;2022-12-18T07:58:33;34.90;;;33.79;;
70450;SDS011;58869;51.982;4.450;2022-12-18T08:01:08;34.91;;;33.84;;
70450;SDS011;58869;51.982;4.450;2022-12-18T08:03:35;35.02;;;34.00;;
70450;SDS011;58869;51.982;4.450;2022-12-18T08:06:02;33.76;;;32.78;;
70450;SDS011;58869;51.982;4.450;2022-12-18T08:08:29;33.92;;;32.89;;
70450;SDS011;58869;51.982;4.450;2022-12-18T08:10:55;33.68;;;32.60;;
70450;SDS011;58869;51.982;4.450;2022-12-18T08:13:21;34.79;;;33.66;;
70450;SDS011;58869;51.982;4.450;2022-12-18T08:16:07;34.30;;;33.25;;
70450;SDS011;58869;51.982;4.450;2022-12-18T08:18:34;34.59;;;33.38;;
70450;SDS011;58869;51.982;4.450;2022-12-18T08:21:07;33.45;;;32.57;;
70450;SDS011;58869;51.982;4.450;2022-12-18T08:23:36;33.78;;;32.78;;
70450;SDS011;58869;51.982;4.450;2022-12-18T08:26:03;35.06;;;33.72;;
70450;SDS011;58869;51.982;4.450;2022-12-18T08:28:29;35.78;;;34.45;;
70450;SDS011;58869;51.982;4.450;2022-12-18T08:30:54;34.81;;;33.69;;
70450;SDS011;58869;51.982;4.450;2022-12-18T08:33:20;35.68;;;34.40;;
70450;SDS011;58869;51.982;4.450;2022-12-18T08:36:00;33.88;;;33.03;;
70450;SDS011;58869;51.982;4.450;2022-12-18T08:38:29;34.79;;;33.80;;
70450;SDS011;58869;51.982;4.450;2022-12-18T08:40:58;34.99;;;33.76;;
70450;SDS011;58869;51.982;4.450;2022-12-18T08:43:25;34.82;;;33.84;;
70450;SDS011;58869;51.982;4.450;2022-12-18T08:46:10;33.95;;;33.18;;
70450;SDS011;58869;51.982;4.450;2022-12-18T08:48:35;34.56;;;33.50;;
70450;SDS011;58869;51.982;4.450;2022-12-18T08:51:01;33.93;;;33.14;;
70450;SDS011;58869;51.982;4.450;2022-12-18T08:58:53;33.23;;;32.35;;
70450;SDS011;58869;51.982;4.450;2022-12-18T09:01:20;33.51;;;32.55;;
70450;SDS011;58869;51.982;4.450;2022-12-18T09:06:39;33.21;;;32.42;;
70450;SDS011;58869;51.982;4.450;2022-12-18T09:09:08;35.39;;;34.44;;
70450;SDS011;58869;51.982;4.450;2022-12-18T09:11:34;33.86;;;33.30;;
70450;SDS011;58869;51.982;4.450;2022-12-18T09:14:00;34.42;;;33.38;;
70450;SDS011;58869;51.982;4.450;2022-12-18T09:16:27;34.05;;;33.12;;
70450;SDS011;58869;51.982;4.450;2022-12-18T09:18:54;34.20;;;33.42;;
70450;SDS011;58869;51.982;4.450;2022-12-18T09:21:24;34.05;;;33.10;;
70450;SDS011;58869;51.982;4.450;2022-12-18T09:23:51;34.44;;;33.45;;
70450;SDS011;58869;51.982;4.450;2022-12-18T09:26:19;32.47;;;31.78;;
70450;SDS011;58869;51.982;4.450;2022-12-18T09:28:45;33.34;;;32.39;;
70450;SDS011;58869;51.982;4.450;2022-12-18T09:31:12;32.74;;;32.02;;
70450;SDS011;58869;51.982;4.450;2022-12-18T09:33:38;33.28;;;32.46;;
70450;SDS011;58869;51.982;4.450;2022-12-18T09:36:05;33.36;;;32.45;;
70450;SDS011;58869;51.982;4.450;2022-12-18T09:38:32;33.94;;;32.84;;
70450;SDS011;58869;51.982;4.450;2022-12-18T09:41:06;33.31;;;32.54;;
70450;SDS011;58869;51.982;4.450;2022-12-18T09:43:47;34.04;;;33.17;;
70450;SDS011;58869;51.982;4.450;2022-12-18T09:46:20;33.70;;;32.86;;
70450;SDS011;58869;51.982;4.450;2022-12-18T09:48:52;32.38;;;31.85;;
70450;SDS011;58869;51.982;4.450;2022-12-18T09:51:23;33.02;;;32.47;;
70450;SDS011;58869;51.982;4.450;2022-12-18T09:53:56;33.64;;;32.99;;
70450;SDS011;58869;51.982;4.450;2022-12-18T09:56:28;33.65;;;32.73;;
70450;SDS011;58869;51.982;4.450;2022-12-18T09:59:01;33.29;;;32.68;;
70450;SDS011;58869;51.982;4.450;2022-12-18T10:01:32;32.08;;;31.58;;
70450;SDS011;58869;51.982;4.450;2022-12-18T10:03:58;32.73;;;32.02;;
70450;SDS011;58869;51.982;4.450;2022-12-18T10:17:06;32.15;;;31.66;;
70450;SDS011;58869;51.982;4.450;2022-12-18T10:19:41;32.86;;;32.17;;
70450;SDS011;58869;51.982;4.450;2022-12-18T10:27:38;31.57;;;30.96;;
70450;SDS011;58869;51.982;4.450;2022-12-18T10:30:13;31.96;;;31.37;;
70450;SDS011;58869;51.982;4.450;2022-12-18T10:32:44;31.94;;;31.42;;
70450;SDS011;58869;51.982;4.450;2022-12-18T10:35:20;32.05;;;31.38;;
70450;SDS011;58869;51.982;4.450;2022-12-18T10:37:59;30.47;;;29.91;;
70450;SDS011;58869;51.982;4.450;2022-12-18T10:40:25;31.29;;;30.72;;
70450;SDS011;58869;51.982;4.450;2022-12-18T10:48:33;31.60;;;30.71;;
70450;SDS011;58869;51.982;4.450;2022-12-18T10:53:50;30.92;;;30.45;;
70450;SDS011;58869;51.982;4.450;2022-12-18T10:56:20;31.17;;;30.52;;
70450;SDS011;58869;51.982;4.450;2022-12-18T10:58:55;31.48;;;30.93;;
70450;SDS011;58869;51.982;4.450;2022-12-18T11:01:22;31.49;;;30.92;;
70450;SDS011;58869;51.982;4.450;2022-12-18T11:06:17;30.59;;;30.03;;
70450;SDS011;58869;51.982;4.450;2022-12-18T11:09:00;31.09;;;30.40;;
70450;SDS011;58869;51.982;4.450;2022-12-18T11:11:31;30.93;;;30.16;;
70450;SDS011;58869;51.982;4.450;2022-12-18T11:16:42;32.37;;;31.51;;
70450;SDS011;58869;51.982;4.450;2022-12-18T11:19:13;31.37;;;30.79;;
70450;SDS011;58869;51.982;4.450;2022-12-18T11:21:47;31.44;;;30.81;;
70450;SDS011;58869;51.982;4.450;2022-12-18T11:24:34;32.18;;;31.42;;
70450;SDS011;58869;51.982;4.450;2022-12-18T11:27:00;31.37;;;30.70;;
70450;SDS011;58869;51.982;4.450;2022-12-18T11:29:35;31.22;;;30.72;;
70450;SDS011;58869;51.982;4.450;2022-12-18T11:34:50;31.56;;;30.82;;
70450;SDS011;58869;51.982;4.450;2022-12-18T11:37:20;31.34;;;30.84;;
70450;SDS011;58869;51.982;4.450;2022-12-18T11:39:50;32.24;;;31.59;;
70450;SDS011;58869;51.982;4.450;2022-12-18T11:42:36;31.48;;;30.73;;
70450;SDS011;58869;51.982;4.450;2022-12-18T11:45:23;31.47;;;30.67;;
70450;SDS011;58869;51.982;4.450;2022-12-18T11:50:53;30.86;;;30.31;;
70450;SDS011;58869;51.982;4.450;2022-12-18T11:53:21;30.56;;;30.13;;
70450;SDS011;58869;51.982;4.450;2022-12-18T12:03:47;30.40;;;29.91;;
70450;SDS011;58869;51.982;4.450;2022-12-18T12:06:36;29.50;;;29.07;;
70450;SDS011;58869;51.982;4.450;2022-12-18T12:18:15;29.88;;;29.20;;
70450;SDS011;58869;51.982;4.450;2022-12-18T12:21:25;31.17;;;30.31;;
70450;SDS011;58869;51.982;4.450;2022-12-18T12:26:11;31.03;;;30.42;;
70450;SDS011;58869;51.982;4.450;2022-12-18T12:32:03;30.27;;;29.53;;
70450;SDS011;58869;51.982;4.450;2022-12-18T12:37:25;31.05;;;30.29;;
70450;SDS011;58869;51.982;4.450;2022-12-18T12:40:17;30.58;;;29.91;;
70450;SDS011;58869;51.982;4.450;2022-12-18T12:42:47;30.90;;;30.04;;
70450;SDS011;58869;51.982;4.450;2022-12-18T12:48:09;30.49;;;29.88;;
70450;SDS011;58869;51.982;4.450;2022-12-18T12:50:51;30.43;;;29.80;;
70450;SDS011;58869;51.982;4.450;2022-12-18T12:53:37;31.07;;;30.47;;
70450;SDS011;58869;51.982;4.450;2022-12-18T12:56:04;31.02;;;30.35;;
70450;SDS011;58869;51.982;4.450;2022-12-18T12:58:34;31.27;;;30.61;;
70450;SDS011;58869;51.982;4.450;2022-12-18T13:01:18;31.23;;;30.61;;
70450;SDS011;58869;51.982;4.450;2022-12-18T13:04:03;31.91;;;31.07;;
70450;SDS011;58869;51.982;4.450;2022-12-18T13:09:05;30.32;;;29.82;;
70450;SDS011;58869;51.982;4.450;2022-12-18T13:11:40;30.83;;;30.03;;
70450;SDS011;58869;51.982;4.450;2022-12-18T13:19:49;30.92;;;30.26;;
70450;SDS011;58869;51.982;4.450;2022-12-18T13:22:20;30.40;;;29.76;;
70450;SDS011;58869;51.982;4.450;2022-12-18T13:24:53;31.19;;;30.49;;
70450;SDS011;58869;51.982;4.450;2022-12-18T13:45:46;31.35;;;30.69;;
70450;SDS011;58869;51.982;4.450;2022-12-18T13:48:29;33.73;;;33.02;;
70450;SDS011;58869;51.982;4.450;2022-12-18T13:50:59;33.48;;;32.72;;
70450;SDS011;58869;51.982;4.450;2022-12-18T13:53:28;31.40;;;30.94;;
70450;SDS011;58869;51.982;4.450;2022-12-18T13:55:59;32.29;;;31.72;;
70450;SDS011;58869;51.982;4.450;2022-12-18T13:58:24;31.93;;;31.13;;
70450;SDS011;58869;51.982;4.450;2022-12-18T14:00:50;32.22;;;31.24;;
70450;SDS011;58869;51.982;4.450;2022-12-18T14:03:20;31.46;;;30.82;;
70450;SDS011;58869;51.982;4.450;2022-12-18T14:05:52;32.43;;;31.84;;
70450;SDS011;58869;51.982;4.450;2022-12-18T14:08:26;32.41;;;31.57;;
70450;SDS011;58869;51.982;4.450;2022-12-18T14:10:57;32.53;;;31.92;;
70450;SDS011;58869;51.982;4.450;2022-12-18T14:13:27;31.98;;;31.19;;
70450;SDS011;58869;51.982;4.450;2022-12-18T14:16:01;32.33;;;31.54;;
70450;SDS011;58869;51.982;4.450;2022-12-18T14:18:32;31.96;;;31.31;;
70450;SDS011;58869;51.982;4.450;2022-12-18T14:21:04;33.28;;;32.78;;
70450;SDS011;58869;51.982;4.450;2022-12-18T14:26:17;33.45;;;32.48;;
70450;SDS011;58869;51.982;4.450;2022-12-18T14:28:47;32.43;;;31.83;;
70450;SDS011;58869;51.982;4.450;2022-12-18T14:31:23;31.78;;;31.10;;
70450;SDS011;58869;51.982;4.450;2022-12-18T14:33:50;31.62;;;31.10;;
70450;SDS011;58869;51.982;4.450;2022-12-18T14:36:20;31.79;;;31.16;;
70450;SDS011;58869;51.982;4.450;2022-12-18T14:38:50;31.61;;;30.85;;
70450;SDS011;58869;51.982;4.450;2022-12-18T14:41:20;30.93;;;30.24;;
70450;SDS011;58869;51.982;4.450;2022-12-18T14:43:50;31.42;;;30.59;;
70450;SDS011;58869;51.982;4.450;2022-12-18T14:48:58;31.69;;;30.99;;
70450;SDS011;58869;51.982;4.450;2022-12-18T14:51:26;31.87;;;31.05;;
70450;SDS011;58869;51.982;4.450;2022-12-18T14:53:54;32.52;;;31.79;;
70450;SDS011;58869;51.982;4.450;2022-12-18T14:56:27;31.48;;;30.81;;
70450;SDS011;58869;51.982;4.450;2022-12-18T14:58:58;31.47;;;30.56;;
70450;SDS011;58869;51.982;4.450;2022-12-18T15:01:39;32.82;;;31.82;;
70450;SDS011;58869;51.982;4.450;2022-12-18T15:04:23;31.44;;;30.57;;
70450;SDS011;58869;51.982;4.450;2022-12-18T15:07:11;31.75;;;31.02;;
70450;SDS011;58869;51.982;4.450;2022-12-18T15:09:40;31.98;;;31.25;;
70450;SDS011;58869;51.982;4.450;2022-12-18T15:12:32;33.30;;;32.64;;
70450;SDS011;58869;51.982;4.450;2022-12-18T15:18:00;33.64;;;32.99;;
70450;SDS011;58869;51.982;4.450;2022-12-18T15:20:42;33.85;;;33.24;;
70450;SDS011;58869;51.982;4.450;2022-12-18T15:26:04;33.78;;;33.05;;
70450;SDS011;58869;51.982;4.450;2022-12-18T15:36:18;31.95;;;31.01;;
70450;SDS011;58869;51.982;4.450;2022-12-18T15:38:48;31.57;;;30.77;;
70450;SDS011;58869;51.982;4.450;2022-12-18T15:41:18;31.85;;;31.12;;
70450;SDS011;58869;51.982;4.450;2022-12-18T15:43:45;31.42;;;30.87;;
70450;SDS011;58869;51.982;4.450;2022-12-18T15:46:15;31.46;;;30.75;;
70450;SDS011;58869;51.982;4.450;2022-12-18T15:48:44;32.61;;;31.59;;
70450;SDS011;58869;51.982;4.450;2022-12-18T15:51:13;31.92;;;31.20;;
70450;SDS011;58869;51.982;4.450;2022-12-18T15:53:51;31.36;;;30.77;;
70450;SDS011;58869;51.982;4.450;2022-12-18T15:56:19;32.44;;;31.81;;
70450;SDS011;58869;51.982;4.450;2022-12-18T15:59:04;32.74;;;31.95;;
70450;SDS011;58869;51.982;4.450;2022-12-18T16:01:38;32.37;;;31.70;;
70450;SDS011;58869;51.982;4.450;2022-12-18T16:04:08;33.88;;;33.32;;
70450;SDS011;58869;51.982;4.450;2022-12-18T16:06:36;33.15;;;32.24;;
70450;SDS011;58869;51.982;4.450;2022-12-18T16:09:01;33.16;;;32.28;;
70450;SDS011;58869;51.982;4.450;2022-12-18T16:11:28;33.00;;;32.16;;
70450;SDS011;58869;51.982;4.450;2022-12-18T16:14:06;32.65;;;32.00;;
70450;SDS011;58869;51.982;4.450;2022-12-18T16:16:44;32.08;;;31.33;;
70450;SDS011;58869;51.982;4.450;2022-12-18T16:19:10;33.54;;;32.70;;
70450;SDS011;58869;51.982;4.450;2022-12-18T16:21:36;35.26;;;34.40;;
70450;SDS011;58869;51.982;4.450;2022-12-18T16:24:01;33.75;;;33.09;;
70450;SDS011;58869;51.982;4.450;2022-12-18T16:26:27;35.63;;;34.78;;
70450;SDS011;58869;51.982;4.450;2022-12-18T16:28:52;34.01;;;33.22;;
70450;SDS011;58869;51.982;4.450;2022-12-18T16:31:18;32.79;;;32.16;;
70450;SDS011;58869;51.982;4.450;2022-12-18T16:33:44;33.13;;;32.36;;
70450;SDS011;58869;51.982;4.450;2022-12-18T16:36:09;34.91;;;33.83;;
70450;SDS011;58869;51.982;4.450;2022-12-18T16:38:35;34.10;;;33.04;;
70450;SDS011;58869;51.982;4.450;2022-12-18T16:41:06;35.61;;;34.79;;
70450;SDS011;58869;51.982;4.450;2022-12-18T16:43:59;35.93;;;35.10;;
70450;SDS011;58869;51.982;4.450;2022-12-18T16:46:25;35.96;;;35.10;;
70450;SDS011;58869;51.982;4.450;2022-12-18T16:48:50;35.33;;;34.58;;
70450;SDS011;58869;51.982;4.450;2022-12-18T16:51:16;35.00;;;34.25;;
70450;SDS011;58869;51.982;4.450;2022-12-18T16:53:41;35.64;;;34.86;;
70450;SDS011;58869;51.982;4.450;2022-12-18T16:56:07;35.51;;;34.73;;
70450;SDS011;58869;51.982;4.450;2022-12-18T16:58:35;35.82;;;35.05;;
70450;SDS011;58869;51.982;4.450;2022-12-18T17:01:01;35.78;;;35.03;;
70450;SDS011;58869;51.982;4.450;2022-12-18T17:03:32;34.95;;;34.27;;